Time;durP1;ratioP1;P1;durP2;ratioP2;P2;SDS_P1;SDS_P2;PMS_P1;PMS_P2;Temp;Humidity;BMP_temperature;BMP_pressure;BME280_temperature;BME280_humidity;BME280_pressure;Samples;Min_cycle;Max_cycle;Signal;HPM_P1;HPM_P2
2023/06/30 00:01:48;;;;;;;32.00;17.42;;;18.80;99.90;;;;;;4959040;28;20098;-63
2023/06/30 00:04:16;;;;;;;36.10;19.75;;;18.80;99.90;;;;;;4957796;28;20050;-62
2023/06/30 00:06:42;;;;;;;35.22;19.05;;;18.80;99.90;;;;;;4962464;28;20031;-65
2023/06/30 00:09:08;;;;;;;34.58;18.63;;;18.80;99.90;;;;;;4953186;28;20039;-63
2023/06/30 00:11:33;;;;;;;35.00;17.95;;;18.70;99.90;;;;;;4942085;28;20043;-64
2023/06/30 00:13:59;;;;;;;34.03;18.90;;;18.60;99.90;;;;;;4952596;28;20408;-64
2023/06/30 00:16:24;;;;;;;32.90;18.75;;;18.70;99.90;;;;;;4953144;28;20029;-64
2023/06/30 00:18:50;;;;;;;37.53;20.00;;;18.60;99.90;;;;;;4943445;28;20023;-63
2023/06/30 00:21:15;;;;;;;36.05;20.67;;;18.70;99.90;;;;;;4949202;28;20039;-61
2023/06/30 00:23:41;;;;;;;38.65;20.85;;;18.70;99.90;;;;;;4954618;28;20114;-63
2023/06/30 00:26:07;;;;;;;37.88;19.95;;;18.70;99.90;;;;;;4961283;28;20562;-63
2023/06/30 00:28:32;;;;;;;38.25;21.80;;;18.60;99.90;;;;;;4958224;28;20035;-61
2023/06/30 00:30:58;;;;;;;38.78;21.17;;;18.50;99.90;;;;;;4953583;28;20132;-63
2023/06/30 00:33:24;;;;;;;41.03;21.92;;;18.50;99.90;;;;;;4951931;28;20496;-63
2023/06/30 00:35:49;;;;;;;38.83;22.30;;;18.40;99.90;;;;;;4952806;28;20034;-63
2023/06/30 00:38:15;;;;;;;40.58;21.20;;;18.40;99.90;;;;;;4953468;28;20058;-66
2023/06/30 00:40:40;;;;;;;39.78;22.38;;;18.40;99.90;;;;;;4951855;28;20412;-62
2023/06/30 00:43:06;;;;;;;38.35;22.90;;;18.30;99.90;;;;;;4954298;28;20121;-63
2023/06/30 00:45:32;;;;;;;40.45;22.08;;;18.30;99.90;;;;;;4954672;28;20046;-63
2023/06/30 00:47:58;;;;;;;43.05;21.23;;;18.20;99.90;;;;;;4951542;28;20429;-62
2023/06/30 00:50:25;;;;;;;40.38;22.52;;;18.20;99.90;;;;;;4953704;28;20031;-65
2023/06/30 00:52:51;;;;;;;40.85;24.13;;;18.20;99.90;;;;;;4953685;28;20034;-63
2023/06/30 00:55:17;;;;;;;40.92;24.20;;;18.30;99.90;;;;;;4952039;28;20038;-63
2023/06/30 00:57:43;;;;;;;32.08;20.92;;;18.20;99.90;;;;;;4952274;28;20042;-62
2023/06/30 01:00:11;;;;;;;33.30;20.50;;;18.10;99.90;;;;;;4953084;28;20388;-62
2023/06/30 01:02:55;;;;;;;41.53;21.05;;;18.00;99.90;;;;;;4956021;28;20022;-63
2023/06/30 01:05:25;;;;;;;;;;;17.90;99.90;;;;;;4955252;28;20035;-63
2023/06/30 01:08:29;;;;;;;29.90;19.48;;;17.90;99.90;;;;;;4951674;28;19906;-62
2023/06/30 01:10:56;;;;;;;31.48;17.00;;;17.80;99.90;;;;;;4953912;28;20392;-62
2023/06/30 01:13:24;;;;;;;25.02;15.70;;;17.70;99.90;;;;;;4953696;28;20031;-61
2023/06/30 01:15:50;;;;;;;27.70;13.65;;;17.60;99.90;;;;;;4951651;28;20027;-63
2023/06/30 01:18:19;;;;;;;17.17;10.30;;;17.60;99.90;;;;;;4951863;28;20106;-63
2023/06/30 01:20:46;;;;;;;20.33;11.93;;;17.60;99.90;;;;;;4951728;28;20023;-63
2023/06/30 01:23:17;;;;;;;17.85;10.75;;;17.50;99.90;;;;;;4950515;28;20074;-62
2023/06/30 01:25:45;;;;;;;12.70;8.52;;;17.40;99.90;;;;;;4953290;28;20099;-64
2023/06/30 01:28:12;;;;;;;17.95;8.00;;;17.30;99.90;;;;;;4953030;28;20019;-61
2023/06/30 01:30:38;;;;;;;16.20;7.07;;;17.30;99.90;;;;;;4948321;28;20078;-63
2023/06/30 01:33:04;;;;;;;9.23;6.32;;;17.30;99.90;;;;;;4962227;28;20058;-63
2023/06/30 01:35:29;;;;;;;12.63;6.20;;;17.20;99.90;;;;;;4958129;28;20085;-63
2023/06/30 01:37:56;;;;;;;9.57;5.78;;;17.20;99.90;;;;;;4952661;28;20023;-63
2023/06/30 01:40:22;;;;;;;8.98;5.47;;;17.10;99.90;;;;;;4952745;28;20125;-63
2023/06/30 01:42:52;;;;;;;8.65;5.25;;;17.10;99.90;;;;;;4954193;28;20031;-64
2023/06/30 01:45:19;;;;;;;8.02;5.18;;;17.10;99.90;;;;;;4948726;28;20158;-63
2023/06/30 01:47:45;;;;;;;7.00;4.95;;;17.20;99.90;;;;;;4952348;28;20516;-65
2023/06/30 01:50:11;;;;;;;8.15;4.97;;;17.10;99.90;;;;;;4953187;28;20042;-64
2023/06/30 01:52:37;;;;;;;7.30;4.65;;;17.10;99.90;;;;;;4952803;28;20035;-62
2023/06/30 01:55:03;;;;;;;8.70;4.97;;;17.10;99.90;;;;;;4954095;28;20063;-64
2023/06/30 01:57:29;;;;;;;7.70;4.63;;;17.10;99.90;;;;;;4950116;28;20045;-65
2023/06/30 01:59:54;;;;;;;7.18;4.50;;;17.10;99.90;;;;;;4950491;28;20512;-63
2023/06/30 02:02:21;;;;;;;6.90;4.47;;;17.00;99.90;;;;;;4949358;28;20031;-63
2023/06/30 02:04:46;;;;;;;9.98;5.20;;;17.00;99.90;;;;;;4954917;28;20110;-63
2023/06/30 02:07:12;;;;;;;10.18;5.05;;;17.00;99.90;;;;;;4954646;28;20467;-64
2023/06/30 02:09:37;;;;;;;7.47;5.80;;;17.00;99.90;;;;;;4951561;28;20023;-63
2023/06/30 02:12:03;;;;;;;7.20;5.13;;;17.00;99.90;;;;;;4956636;28;20027;-63
2023/06/30 02:14:29;;;;;;;7.07;4.45;;;17.00;99.90;;;;;;4957956;28;20488;-64
2023/06/30 02:16:55;;;;;;;9.27;4.97;;;17.00;99.90;;;;;;4951243;28;20030;-65
2023/06/30 02:19:23;;;;;;;5.80;4.40;;;17.00;99.90;;;;;;4954537;28;20497;-62
2023/06/30 02:21:50;;;;;;;6.65;4.60;;;17.00;99.90;;;;;;4954056;28;20023;-63
2023/06/30 02:24:16;;;;;;;4.03;3.30;;;17.00;99.90;;;;;;4960278;28;20023;-63
2023/06/30 02:26:41;;;;;;;5.60;3.78;;;17.00;99.90;;;;;;4955319;28;20070;-65
2023/06/30 02:29:07;;;;;;;6.82;3.80;;;17.00;99.90;;;;;;4959390;28;20054;-63
2023/06/30 02:31:32;;;;;;;8.68;4.22;;;16.90;99.90;;;;;;4955203;28;20035;-65
2023/06/30 02:33:58;;;;;;;5.97;3.70;;;16.80;99.90;;;;;;4964192;28;20038;-63
2023/06/30 02:36:24;;;;;;;8.10;3.63;;;16.80;99.90;;;;;;4962864;28;20038;-64
2023/06/30 02:38:50;;;;;;;9.77;3.60;;;16.70;99.90;;;;;;4960326;28;20028;-64
2023/06/30 02:41:15;;;;;;;4.63;4.13;;;16.70;99.90;;;;;;4961270;28;20077;-62
2023/06/30 02:43:42;;;;;;;4.50;3.33;;;16.60;99.90;;;;;;4956846;28;20027;-62
2023/06/30 02:46:08;;;;;;;6.50;4.60;;;16.60;99.90;;;;;;4964062;28;20021;-64
2023/06/30 02:48:33;;;;;;;5.57;3.95;;;16.60;99.90;;;;;;4954287;28;20098;-59
2023/06/30 02:50:59;;;;;;;4.53;4.05;;;16.50;99.90;;;;;;4958110;28;20489;-64
2023/06/30 02:53:25;;;;;;;7.30;4.82;;;16.50;99.90;;;;;;4953365;28;20066;-64
2023/06/30 02:55:50;;;;;;;5.80;4.70;;;16.40;99.90;;;;;;4953235;28;20055;-66
2023/06/30 02:58:16;;;;;;;7.57;5.28;;;16.30;99.90;;;;;;4961589;28;20035;-63
2023/06/30 03:00:42;;;;;;;5.65;4.32;;;16.30;99.90;;;;;;4964819;28;20098;-64
2023/06/30 03:03:07;;;;;;;6.47;4.50;;;16.20;99.90;;;;;;4960342;28;20098;-64
2023/06/30 03:05:34;;;;;;;6.03;4.80;;;16.10;99.90;;;;;;4956152;28;20102;-63
2023/06/30 03:07:59;;;;;;;5.03;4.40;;;16.10;99.90;;;;;;4954834;28;20453;-63
2023/06/30 03:10:25;;;;;;;8.38;4.78;;;16.00;99.90;;;;;;4961481;28;20117;-64
2023/06/30 03:12:51;;;;;;;6.07;4.53;;;16.00;99.90;;;;;;4955193;28;20034;-63
2023/06/30 03:15:17;;;;;;;11.00;5.25;;;15.90;99.90;;;;;;4957645;28;20104;-62
2023/06/30 03:17:43;;;;;;;5.20;4.13;;;15.90;99.90;;;;;;4961857;28;20042;-63
2023/06/30 03:20:11;;;;;;;7.63;5.22;;;15.80;99.90;;;;;;4956331;28;20026;-63
2023/06/30 03:22:38;;;;;;;10.50;5.32;;;15.80;99.90;;;;;;4960991;28;20030;-63
2023/06/30 03:25:05;;;;;;;8.15;5.40;;;15.70;99.90;;;;;;4955213;28;20046;-61
2023/06/30 03:27:31;;;;;;;7.85;5.07;;;15.60;99.90;;;;;;4952608;28;20035;-63
2023/06/30 03:29:56;;;;;;;7.75;5.30;;;15.60;99.90;;;;;;4958794;28;20477;-63
2023/06/30 03:32:22;;;;;;;8.18;5.75;;;15.50;99.90;;;;;;4957490;28;20062;-63
2023/06/30 03:34:47;;;;;;;10.13;6.65;;;15.50;99.90;;;;;;4960325;28;20032;-63
2023/06/30 03:37:13;;;;;;;12.70;6.63;;;15.50;99.90;;;;;;4962441;28;20054;-63
2023/06/30 03:39:39;;;;;;;9.90;6.53;;;15.50;99.90;;;;;;4945102;28;20070;-63
2023/06/30 03:42:05;;;;;;;10.02;7.05;;;15.40;99.90;;;;;;4964083;28;20109;-63
2023/06/30 03:44:31;;;;;;;11.88;6.88;;;15.40;99.90;;;;;;4959666;28;20046;-64
2023/06/30 03:46:56;;;;;;;8.82;6.82;;;15.40;99.90;;;;;;4955848;28;20062;-62
2023/06/30 03:49:22;;;;;;;10.77;7.53;;;15.40;99.90;;;;;;4958905;28;20034;-63
2023/06/30 03:51:48;;;;;;;11.02;7.35;;;15.50;99.90;;;;;;4962521;28;20030;-62
2023/06/30 03:54:13;;;;;;;13.00;6.75;;;15.50;99.90;;;;;;4965276;28;20065;-61
2023/06/30 03:56:39;;;;;;;9.20;7.00;;;15.40;99.90;;;;;;4967627;28;20102;-64
2023/06/30 03:59:05;;;;;;;10.40;5.78;;;15.50;99.90;;;;;;4957917;28;20030;-64
2023/06/30 04:01:33;;;;;;;8.15;5.90;;;15.50;99.90;;;;;;4954589;28;20038;-65
2023/06/30 04:03:59;;;;;;;10.93;5.90;;;15.50;99.90;;;;;;4956423;28;20040;-63
2023/06/30 04:06:25;;;;;;;12.25;6.45;;;15.50;99.90;;;;;;4960452;28;20027;-63
2023/06/30 04:08:51;;;;;;;13.55;6.18;;;15.50;99.90;;;;;;4966789;28;20039;-64
2023/06/30 04:11:16;;;;;;;15.05;5.68;;;15.40;99.90;;;;;;4959071;28;20070;-63
2023/06/30 04:13:42;;;;;;;10.10;6.55;;;15.40;99.90;;;;;;4955999;28;20035;-61
2023/06/30 04:16:09;;;;;;;11.40;6.00;;;15.40;99.90;;;;;;4956136;28;20030;-64
2023/06/30 04:18:35;;;;;;;14.40;6.95;;;15.50;99.90;;;;;;4960188;28;20051;-62
2023/06/30 04:21:00;;;;;;;14.18;8.43;;;15.40;99.90;;;;;;4956726;28;20105;-66
2023/06/30 04:23:26;;;;;;;19.00;10.05;;;15.40;99.90;;;;;;4954132;28;20026;-60
2023/06/30 04:25:52;;;;;;;15.77;9.93;;;15.40;99.90;;;;;;4958027;28;20120;-62
2023/06/30 04:28:17;;;;;;;18.35;11.68;;;15.40;99.90;;;;;;4958389;28;20545;-62
2023/06/30 04:30:43;;;;;;;19.13;10.30;;;15.40;99.90;;;;;;4955626;28;20109;-63
2023/06/30 04:33:08;;;;;;;19.52;9.80;;;15.40;99.90;;;;;;4958287;28;20094;-63
2023/06/30 04:35:34;;;;;;;18.27;11.48;;;15.40;99.90;;;;;;4958249;28;20065;-63
2023/06/30 04:37:59;;;;;;;16.90;11.15;;;15.40;99.90;;;;;;4954452;28;20543;-64
2023/06/30 04:40:25;;;;;;;21.85;10.77;;;15.40;99.90;;;;;;4944840;28;20039;-62
2023/06/30 04:42:50;;;;;;;24.50;12.98;;;15.40;99.90;;;;;;4969432;28;20082;-65
2023/06/30 04:45:16;;;;;;;26.75;12.55;;;15.40;99.90;;;;;;4955126;28;20034;-62
2023/06/30 04:47:42;;;;;;;18.95;12.25;;;15.40;99.90;;;;;;4965752;28;20027;-63
2023/06/30 04:50:08;;;;;;;21.70;12.57;;;15.40;99.90;;;;;;4953734;28;20037;-64
2023/06/30 04:52:33;;;;;;;28.63;14.60;;;15.40;99.90;;;;;;4957387;28;20027;-63
2023/06/30 04:54:59;;;;;;;23.83;13.65;;;15.40;99.90;;;;;;4956847;28;20436;-61
2023/06/30 04:57:24;;;;;;;22.92;13.88;;;15.40;99.90;;;;;;4958626;28;20444;-63
2023/06/30 04:59:51;;;;;;;26.13;15.80;;;15.50;99.90;;;;;;4962165;28;20031;-63
2023/06/30 05:02:17;;;;;;;22.23;14.25;;;15.60;99.90;;;;;;4933904;28;20074;-64
2023/06/30 05:04:42;;;;;;;32.38;16.75;;;15.50;99.90;;;;;;4955151;28;20050;-63
2023/06/30 05:07:09;;;;;;;27.30;15.85;;;15.50;99.90;;;;;;4955670;28;20051;-64
2023/06/30 05:09:35;;;;;;;23.45;15.02;;;15.50;99.90;;;;;;4952035;28;20082;-64
2023/06/30 05:12:02;;;;;;;28.77;16.35;;;15.50;99.90;;;;;;4962502;28;20113;-63
2023/06/30 05:14:28;;;;;;;30.67;17.75;;;15.50;99.90;;;;;;4958938;28;20027;-63
2023/06/30 05:16:54;;;;;;;31.15;17.58;;;15.60;99.90;;;;;;4953753;28;20134;-62
2023/06/30 05:19:20;;;;;;;27.48;17.50;;;15.60;99.90;;;;;;4952209;28;20102;-62
2023/06/30 05:21:46;;;;;;;31.67;19.23;;;15.70;99.90;;;;;;4950134;28;20060;-63
2023/06/30 05:24:11;;;;;;;30.45;18.40;;;15.70;99.90;;;;;;4957624;28;20055;-64
2023/06/30 05:26:37;;;;;;;28.77;17.67;;;15.80;99.90;;;;;;4950028;28;20035;-64
2023/06/30 05:29:04;;;;;;;30.63;18.63;;;16.00;99.90;;;;;;4957527;28;20510;-64
2023/06/30 05:31:29;;;;;;;26.25;18.35;;;16.00;99.90;;;;;;4954781;28;20118;-63
2023/06/30 05:33:55;;;;;;;29.58;17.20;;;16.10;99.90;;;;;;4956999;28;20102;-63
2023/06/30 05:36:20;;;;;;;22.23;15.00;;;16.00;99.90;;;;;;4952464;28;20035;-63
2023/06/30 05:38:46;;;;;;;30.25;16.83;;;16.10;99.90;;;;;;4965217;28;20027;-62
2023/06/30 05:41:11;;;;;;;26.27;16.83;;;16.10;99.90;;;;;;4956824;28;20118;-65
2023/06/30 05:43:37;;;;;;;31.90;17.15;;;16.20;99.90;;;;;;4961883;28;20031;-63
2023/06/30 05:46:03;;;;;;;29.13;17.02;;;16.30;99.90;;;;;;4953473;28;20030;-63
2023/06/30 05:48:28;;;;;;;24.40;16.08;;;16.30;99.90;;;;;;4956878;28;20023;-65
2023/06/30 05:50:54;;;;;;;31.75;15.30;;;16.30;99.90;;;;;;4944816;28;20043;-66
2023/06/30 05:53:20;;;;;;;26.65;15.45;;;16.30;99.90;;;;;;4955216;28;20078;-63
2023/06/30 05:55:45;;;;;;;23.27;15.48;;;16.30;99.90;;;;;;4956168;28;20020;-62
2023/06/30 05:58:11;;;;;;;23.90;15.98;;;16.40;99.90;;;;;;4951539;28;20457;-63
2023/06/30 06:00:36;;;;;;;21.48;14.45;;;16.50;99.90;;;;;;4957174;28;20035;-65
2023/06/30 06:03:02;;;;;;;26.15;14.95;;;16.50;99.90;;;;;;4952189;28;20507;-63
2023/06/30 06:05:27;;;;;;;24.38;14.35;;;16.60;99.90;;;;;;4956022;28;20023;-65
2023/06/30 06:07:53;;;;;;;21.13;14.30;;;16.60;99.90;;;;;;4953470;28;20484;-64
2023/06/30 06:10:19;;;;;;;25.23;14.45;;;16.60;99.90;;;;;;4955282;28;20063;-63
2023/06/30 06:12:44;;;;;;;25.33;14.75;;;16.50;99.90;;;;;;4955401;28;20026;-65
2023/06/30 06:15:10;;;;;;;23.15;13.38;;;16.60;99.90;;;;;;4955348;28;20090;-62
2023/06/30 06:17:36;;;;;;;22.10;12.63;;;16.70;99.90;;;;;;4960427;28;20033;-63
2023/06/30 06:20:02;;;;;;;25.67;14.77;;;16.70;99.90;;;;;;4956559;28;20107;-65
2023/06/30 06:22:27;;;;;;;26.77;14.18;;;16.80;99.90;;;;;;4963885;28;20062;-65
2023/06/30 06:24:53;;;;;;;22.73;13.70;;;16.90;99.90;;;;;;4954248;28;20066;-61
2023/06/30 06:27:18;;;;;;;18.20;11.70;;;16.90;99.90;;;;;;4964438;28;20034;-63
2023/06/30 06:29:44;;;;;;;21.15;12.85;;;17.00;99.90;;;;;;4957005;28;20031;-63
2023/06/30 06:32:10;;;;;;;19.10;11.38;;;17.10;99.90;;;;;;4960806;28;20039;-64
2023/06/30 06:34:35;;;;;;;19.67;11.95;;;17.30;99.90;;;;;;4958551;28;20027;-62
2023/06/30 06:37:01;;;;;;;20.50;11.27;;;17.30;99.90;;;;;;4954412;28;20023;-64
2023/06/30 06:39:27;;;;;;;21.92;11.95;;;17.30;99.90;;;;;;4962726;28;20074;-63
2023/06/30 06:41:52;;;;;;;19.65;11.40;;;17.20;99.90;;;;;;4961008;28;20069;-58
2023/06/30 06:44:18;;;;;;;18.42;11.57;;;17.30;99.90;;;;;;4962148;28;20042;-64
2023/06/30 06:46:44;;;;;;;19.23;11.48;;;17.20;99.90;;;;;;4954659;28;20035;-63
2023/06/30 06:49:09;;;;;;;17.70;11.50;;;17.20;99.90;;;;;;4962027;28;20031;-63
2023/06/30 06:51:35;;;;;;;18.05;12.93;;;17.30;99.90;;;;;;4958172;28;20531;-63
2023/06/30 06:54:01;;;;;;;20.75;11.68;;;17.40;99.90;;;;;;4966095;28;20090;-62
2023/06/30 06:56:26;;;;;;;16.10;9.73;;;17.50;99.90;;;;;;4960798;28;20031;-62
2023/06/30 06:58:52;;;;;;;12.77;8.88;;;17.70;99.90;;;;;;4934589;28;20082;-62
2023/06/30 07:01:17;;;;;;;12.27;7.82;;;17.90;99.90;;;;;;4962138;28;20085;-64
2023/06/30 07:03:43;;;;;;;11.90;6.80;;;18.30;99.90;;;;;;4963199;28;20370;-63
2023/06/30 07:06:09;;;;;;;14.80;7.07;;;18.40;99.90;;;;;;4964904;28;20077;-63
2023/06/30 07:08:36;;;;;;;13.10;7.63;;;18.60;99.90;;;;;;4955324;28;20632;-64
2023/06/30 07:11:03;;;;;;;10.52;6.47;;;18.60;99.90;;;;;;4957131;28;20544;-63
2023/06/30 07:13:28;;;;;;;10.43;6.50;;;18.60;99.90;;;;;;4955256;28;20499;-63
2023/06/30 07:15:54;;;;;;;10.40;7.00;;;18.80;99.90;;;;;;4959772;28;20035;-63
2023/06/30 07:18:21;;;;;;;10.10;6.53;;;18.80;99.90;;;;;;4960587;28;20038;-64
2023/06/30 07:20:53;;;;;;;10.23;6.82;;;19.10;99.90;;;;;;4955841;28;20517;-63
2023/06/30 07:23:19;;;;;;;11.70;7.38;;;19.10;99.90;;;;;;4958276;28;20779;-64
2023/06/30 07:25:44;;;;;;;11.27;7.50;;;19.40;99.90;;;;;;4954716;28;20030;-63
2023/06/30 07:28:10;;;;;;;12.20;7.65;;;19.30;99.90;;;;;;4954213;28;20612;-63
2023/06/30 07:30:36;;;;;;;13.57;6.57;;;19.20;99.90;;;;;;4958236;28;20022;-63
2023/06/30 07:33:02;;;;;;;9.75;6.20;;;19.20;99.90;;;;;;4963245;28;20047;-62
2023/06/30 07:35:28;;;;;;;12.57;6.10;;;19.40;99.90;;;;;;4969961;28;20655;-63
2023/06/30 07:37:53;;;;;;;10.30;6.60;;;19.30;99.90;;;;;;4956753;28;20033;-65
2023/06/30 07:40:19;;;;;;;11.35;5.68;;;19.30;99.90;;;;;;4958414;28;20047;-64
2023/06/30 07:42:45;;;;;;;9.75;5.60;;;19.70;99.90;;;;;;4957054;28;20023;-64
2023/06/30 07:45:19;;;;;;;7.50;5.10;;;19.90;99.90;;;;;;4955785;28;20030;-64
2023/06/30 07:47:47;;;;;;;9.98;4.95;;;20.00;99.90;;;;;;4955610;28;20106;-64
2023/06/30 07:50:14;;;;;;;8.57;4.10;;;20.20;99.90;;;;;;4957517;28;20027;-63
2023/06/30 07:52:48;;;;;;;6.72;4.25;;;20.30;99.90;;;;;;4957298;28;20019;-63
2023/06/30 07:55:16;;;;;;;;;;;20.40;99.90;;;;;;4959526;28;20022;-64
2023/06/30 07:57:42;;;;;;;9.38;3.90;;;20.30;99.90;;;;;;4956512;28;19918;-63
2023/06/30 08:00:10;;;;;;;10.02;4.15;;;20.70;99.90;;;;;;4934075;28;20067;-64
2023/06/30 08:02:36;;;;;;;6.82;3.08;;;20.80;99.90;;;;;;4959241;28;20021;-63
2023/06/30 08:05:03;;;;;;;8.50;2.90;;;20.90;99.90;;;;;;4963190;28;20079;-62
2023/06/30 08:07:28;;;;;;;6.93;2.80;;;21.10;99.90;;;;;;4959695;28;20518;-66
2023/06/30 08:09:54;;;;;;;8.32;3.08;;;20.80;99.90;;;;;;4952563;28;20095;-63
2023/06/30 08:12:19;;;;;;;7.47;2.53;;;20.80;99.90;;;;;;4952124;28;20558;-64
2023/06/30 08:14:48;;;;;;;6.30;2.95;;;21.00;99.90;;;;;;4958745;28;20023;-66
2023/06/30 08:17:15;;;;;;;6.57;2.38;;;21.30;99.90;;;;;;4958510;28;20034;-63
2023/06/30 08:19:41;;;;;;;5.90;2.40;;;21.40;99.90;;;;;;4955860;28;20057;-64
2023/06/30 08:22:07;;;;;;;5.80;2.47;;;21.90;99.70;;;;;;4957209;28;20035;-62
2023/06/30 08:24:33;;;;;;;8.90;2.25;;;22.20;99.60;;;;;;4953193;28;20051;-64
2023/06/30 08:26:59;;;;;;;9.15;2.38;;;23.70;95.30;;;;;;4956782;28;20027;-60
2023/06/30 08:29:24;;;;;;;11.68;2.80;;;25.00;93.10;;;;;;4959431;28;20080;-64
2023/06/30 08:31:50;;;;;;;5.15;2.70;;;24.90;93.90;;;;;;4957458;28;20441;-66
2023/06/30 08:34:15;;;;;;;6.10;3.17;;;25.20;91.10;;;;;;4963697;28;20035;-63
2023/06/30 08:36:41;;;;;;;7.88;3.53;;;25.90;90.90;;;;;;4959712;28;20041;-63
2023/06/30 08:39:06;;;;;;;8.50;3.28;;;25.70;90.30;;;;;;4957055;28;20027;-63
2023/06/30 08:41:35;;;;;;;10.98;3.20;;;26.20;86.90;;;;;;4958473;28;20038;-65
2023/06/30 08:44:02;;;;;;;5.32;2.53;;;26.00;84.50;;;;;;4954450;28;20500;-64
2023/06/30 08:46:28;;;;;;;5.22;2.58;;;25.60;85.50;;;;;;4948146;28;20023;-66
2023/06/30 08:48:54;;;;;;;4.63;2.95;;;25.70;83.30;;;;;;4956506;28;20034;-64
2023/06/30 08:51:21;;;;;;;7.93;2.63;;;26.10;88.40;;;;;;4953663;28;20035;-63
2023/06/30 08:53:48;;;;;;;5.40;2.28;;;27.00;84.40;;;;;;4948707;28;20030;-64
2023/06/30 08:56:15;;;;;;;5.13;2.15;;;26.80;78.30;;;;;;4953555;28;20027;-64
2023/06/30 08:58:41;;;;;;;5.20;2.00;;;26.90;78.20;;;;;;4955133;28;20027;-64
2023/06/30 09:01:07;;;;;;;3.95;1.65;;;27.20;77.00;;;;;;4930195;28;20043;-64
2023/06/30 09:03:35;;;;;;;8.50;2.35;;;27.10;76.80;;;;;;4953391;28;20576;-64
2023/06/30 09:06:01;;;;;;;5.07;1.60;;;26.90;71.80;;;;;;4956219;28;20145;-63
2023/06/30 09:08:33;;;;;;;6.65;1.98;;;27.30;72.50;;;;;;4966070;28;20399;-64
2023/06/30 09:10:59;;;;;;;2.90;1.25;;;26.80;71.10;;;;;;4958554;28;20027;-61
2023/06/30 09:13:26;;;;;;;5.25;1.63;;;27.70;68.40;;;;;;4959812;28;20043;-64
2023/06/30 09:15:57;;;;;;;2.92;1.27;;;27.20;69.20;;;;;;4954798;28;20535;-65
2023/06/30 09:18:23;;;;;;;2.67;0.93;;;27.40;72.90;;;;;;4955489;28;20035;-63
2023/06/30 09:20:49;;;;;;;3.50;0.93;;;28.30;69.80;;;;;;4952691;28;20043;-65
2023/06/30 09:23:15;;;;;;;5.00;0.80;;;27.30;68.00;;;;;;4952354;28;20074;-65
2023/06/30 09:25:41;;;;;;;4.05;1.50;;;27.30;69.00;;;;;;4955038;28;20030;-64
2023/06/30 09:28:13;;;;;;;2.13;0.98;;;27.80;65.30;;;;;;4953084;28;20034;-64
2023/06/30 09:30:46;;;;;;;1.48;0.80;;;28.40;66.90;;;;;;4957146;28;20026;-64
2023/06/30 09:33:16;;;;;;;4.75;1.23;;;28.60;63.90;;;;;;4954270;28;20093;-64
2023/06/30 09:35:44;;;;;;;4.68;1.33;;;28.40;63.90;;;;;;4957995;28;20031;-64
2023/06/30 09:38:17;;;;;;;8.55;1.55;;;27.40;70.00;;;;;;4951820;28;20019;-65
2023/06/30 09:40:48;;;;;;;2.35;1.00;;;27.30;68.50;;;;;;4963593;28;20133;-63
2023/06/30 09:43:21;;;;;;;2.05;1.00;;;27.70;68.90;;;;;;4957274;28;20395;-64
2023/06/30 09:45:55;;;;;;;3.38;0.85;;;27.20;68.60;;;;;;4963444;28;20051;-62
2023/06/30 09:48:21;;;;;;;3.75;0.80;;;27.20;65.40;;;;;;4961856;28;20485;-64
2023/06/30 09:50:46;;;;;;;3.95;1.00;;;27.50;67.00;;;;;;4960424;28;20053;-63
2023/06/30 09:53:19;;;;;;;6.13;2.38;;;27.80;63.90;;;;;;4962619;28;20039;-61
2023/06/30 09:55:52;;;;;;;5.45;1.80;;;27.80;63.70;;;;;;4961446;28;20030;-64
2023/06/30 09:58:20;;;;;;;4.75;1.13;;;26.90;64.70;;;;;;4960348;28;20069;-63
2023/06/30 10:00:49;;;;;;;3.85;1.30;;;27.00;65.50;;;;;;4943116;28;20146;-64
2023/06/30 10:03:16;;;;;;;4.38;0.90;;;27.70;62.50;;;;;;4959606;28;20031;-64
2023/06/30 10:05:43;;;;;;;5.22;1.13;;;27.60;62.20;;;;;;4954526;28;20023;-65
2023/06/30 10:08:10;;;;;;;6.32;1.63;;;27.60;63.80;;;;;;4960650;28;20031;-64
2023/06/30 10:10:35;;;;;;;2.60;1.05;;;28.10;61.10;;;;;;4956882;28;20090;-63
2023/06/30 10:13:02;;;;;;;4.05;1.17;;;27.20;61.20;;;;;;4953623;28;20031;-61
2023/06/30 10:15:29;;;;;;;4.50;1.55;;;26.90;62.90;;;;;;4961742;28;20038;-63
2023/06/30 10:17:57;;;;;;;3.38;1.00;;;26.40;63.90;;;;;;4955952;28;20066;-64
2023/06/30 10:20:23;;;;;;;4.22;1.15;;;25.50;66.30;;;;;;4959289;28;20070;-64
2023/06/30 10:22:51;;;;;;;1.90;1.00;;;25.60;66.20;;;;;;4959882;28;20046;-63
2023/06/30 10:25:20;;;;;;;2.58;1.40;;;25.50;67.50;;;;;;4962655;28;20644;-63
2023/06/30 10:27:47;;;;;;;5.90;1.38;;;24.90;66.00;;;;;;4958797;28;20029;-62
2023/06/30 10:30:14;;;;;;;3.70;1.50;;;25.00;66.50;;;;;;4960455;28;20085;-63
2023/06/30 10:32:39;;;;;;;5.35;1.65;;;24.70;68.70;;;;;;4956703;28;20464;-62
2023/06/30 10:35:08;;;;;;;3.85;1.02;;;24.70;67.00;;;;;;4967476;28;20066;-64
2023/06/30 10:37:34;;;;;;;3.58;0.80;;;24.30;67.30;;;;;;4970060;28;20049;-63
2023/06/30 10:40:00;;;;;;;7.43;1.20;;;24.40;66.00;;;;;;4961365;28;20063;-62
2023/06/30 10:42:26;;;;;;;9.07;1.23;;;24.00;65.10;;;;;;4963765;28;20062;-63
2023/06/30 10:44:59;;;;;;;3.97;1.60;;;23.70;70.90;;;;;;4963521;28;20039;-64
2023/06/30 10:47:27;;;;;;;11.07;1.50;;;23.80;67.10;;;;;;4968809;28;20057;-62
2023/06/30 10:49:54;;;;;;;1.73;1.00;;;23.50;67.90;;;;;;4963879;28;20118;-64
2023/06/30 10:52:29;;;;;;;3.45;1.08;;;23.90;67.70;;;;;;4968007;28;20113;-65
2023/06/30 10:55:04;;;;;;;2.15;1.10;;;24.30;66.60;;;;;;4958402;28;20039;-64
2023/06/30 10:57:35;;;;;;;3.88;1.05;;;24.30;65.80;;;;;;4960319;28;20043;-64
2023/06/30 11:00:12;;;;;;;3.85;1.10;;;24.10;68.00;;;;;;4963962;28;20046;-64
2023/06/30 11:02:47;;;;;;;5.00;1.35;;;23.70;69.80;;;;;;4964420;28;20031;-64
2023/06/30 11:05:26;;;;;;;3.20;1.50;;;24.00;69.80;;;;;;4959471;28;20105;-65
2023/06/30 11:07:54;;;;;;;2.47;0.90;;;24.20;66.90;;;;;;4965407;28;20511;-63
2023/06/30 11:10:33;;;;;;;4.57;1.60;;;24.10;66.90;;;;;;4960311;28;20029;-64
2023/06/30 11:13:00;;;;;;;4.55;1.20;;;24.20;69.00;;;;;;4962248;28;20086;-63
2023/06/30 11:15:37;;;;;;;2.10;0.80;;;24.40;67.70;;;;;;4957852;28;20035;-63
2023/06/30 11:18:05;;;;;;;4.75;1.30;;;23.80;67.80;;;;;;4960295;28;20023;-63
2023/06/30 11:20:32;;;;;;;5.20;1.50;;;24.00;69.50;;;;;;4965030;28;21407;-64
2023/06/30 11:23:03;;;;;;;2.72;0.98;;;24.40;70.30;;;;;;4955480;28;20712;-61
2023/06/30 11:25:30;;;;;;;3.97;1.08;;;24.40;66.10;;;;;;4952951;28;20023;-64
2023/06/30 11:27:57;;;;;;;2.00;0.90;;;24.10;66.60;;;;;;4954093;28;20027;-64
2023/06/30 11:30:23;;;;;;;4.30;1.38;;;24.10;68.10;;;;;;4955481;28;20016;-64
2023/06/30 11:32:55;;;;;;;5.18;1.55;;;23.80;66.10;;;;;;4961973;28;20054;-63
2023/06/30 11:35:21;;;;;;;3.10;1.00;;;23.80;68.20;;;;;;4954065;28;20031;-64
2023/06/30 11:37:51;;;;;;;3.67;0.98;;;23.90;69.10;;;;;;4959710;28;20035;-63
2023/06/30 11:40:17;;;;;;;2.72;1.08;;;23.70;66.40;;;;;;4955987;28;20031;-66
2023/06/30 11:42:43;;;;;;;6.47;1.88;;;24.20;68.00;;;;;;4959600;28;20019;-65
2023/06/30 11:45:10;;;;;;;2.92;1.17;;;24.50;66.80;;;;;;4961069;28;20037;-62
2023/06/30 11:47:38;;;;;;;3.50;0.85;;;24.70;69.50;;;;;;4957259;28;20023;-64
2023/06/30 11:50:08;;;;;;;3.85;1.27;;;25.00;66.90;;;;;;4959255;28;20077;-65
2023/06/30 11:52:34;;;;;;;4.53;0.93;;;25.20;63.90;;;;;;4960914;28;20114;-63
2023/06/30 11:55:11;;;;;;;2.30;0.98;;;24.60;64.60;;;;;;4957398;28;20062;-63
2023/06/30 11:57:39;;;;;;;3.97;1.10;;;24.50;67.10;;;;;;4957490;28;20030;-64
2023/06/30 12:00:08;;;;;;;4.60;1.25;;;24.80;64.10;;;;;;4957620;28;20034;-62
2023/06/30 12:02:34;;;;;;;2.58;0.80;;;24.50;65.60;;;;;;4936643;28;20051;-65
2023/06/30 12:04:59;;;;;;;4.75;1.35;;;24.70;66.40;;;;;;4956601;28;20034;-63
2023/06/30 12:07:25;;;;;;;5.95;1.00;;;24.80;64.80;;;;;;4956245;28;20073;-63
2023/06/30 12:10:01;;;;;;;3.92;1.45;;;24.80;63.60;;;;;;4964891;28;20617;-65
2023/06/30 12:12:28;;;;;;;3.33;1.10;;;24.80;64.70;;;;;;4954378;28;20024;-63
2023/06/30 12:14:55;;;;;;;3.35;1.33;;;24.80;63.20;;;;;;4956837;28;20027;-63
2023/06/30 12:17:20;;;;;;;2.67;1.08;;;24.60;61.40;;;;;;4965574;28;20027;-62
2023/06/30 12:19:46;;;;;;;3.10;1.27;;;24.40;64.90;;;;;;4960984;28;20023;-65
2023/06/30 12:22:12;;;;;;;5.88;2.03;;;23.90;64.90;;;;;;4951634;28;20709;-61
2023/06/30 12:24:42;;;;;;;3.90;1.10;;;23.40;64.20;;;;;;4956315;28;20035;-63
2023/06/30 12:27:08;;;;;;;2.20;1.13;;;23.30;67.60;;;;;;4954225;28;20030;-64
2023/06/30 12:29:35;;;;;;;11.43;1.42;;;23.30;66.90;;;;;;4954673;28;20444;-63
2023/06/30 12:32:22;;;;;;;5.47;1.25;;;23.30;67.40;;;;;;4959947;28;20031;-63
2023/06/30 12:34:48;;;;;;;8.05;1.20;;;23.40;67.30;;;;;;4951998;28;20089;-63
2023/06/30 12:37:18;;;;;;;3.13;1.20;;;23.20;67.90;;;;;;4955537;28;20121;-65
2023/06/30 12:39:44;;;;;;;2.72;1.00;;;23.40;68.20;;;;;;4963774;28;20038;-63